createdAt,value
2022-12-03T00:00:45.123Z,14.50
2022-12-03T00:03:12.477Z,14.10
2022-12-03T00:05:48.227Z,15.60
2022-12-03T00:08:15.982Z,30.00
2022-12-03T00:10:43.127Z,30.87
2022-12-03T00:13:10.292Z,20.23
2022-12-03T00:15:37.456Z,16.60
2022-12-03T00:18:10.627Z,18.03
2022-12-03T00:20:37.951Z,15.63
2022-12-03T00:23:05.147Z,19.47
2022-12-03T00:25:32.421Z,20.43
2022-12-03T00:27:59.601Z,16.23
2022-12-03T00:30:26.823Z,17.90
2022-12-03T00:32:56.266Z,17.83
2022-12-03T00:35:23.562Z,19.33
2022-12-03T00:37:50.838Z,18.17
2022-12-03T00:43:09.987Z,16.57
2022-12-03T00:52:52.103Z,15.03
2022-12-03T00:55:19.402Z,14.90
2022-12-03T01:03:18.301Z,14.30
2022-12-03T01:05:45.593Z,14.63
2022-12-03T01:08:28.132Z,14.73
2022-12-03T01:10:55.376Z,15.30
2022-12-03T01:13:22.534Z,18.03
2022-12-03T01:15:50.021Z,15.33
2022-12-03T01:21:00.876Z,16.80
2022-12-03T01:23:28.025Z,16.10
2022-12-03T01:25:55.249Z,15.33
2022-12-03T01:28:22.609Z,15.47
2022-12-03T01:31:08.302Z,15.80
2022-12-03T01:33:35.519Z,15.30
2022-12-03T01:36:08.801Z,15.13
2022-12-03T01:38:37.133Z,15.13
2022-12-03T01:41:10.074Z,14.87
2022-12-03T01:43:38.828Z,15.20
2022-12-03T01:46:06.343Z,15.23
2022-12-03T01:48:36.183Z,15.00
2022-12-03T01:51:03.889Z,13.87
2022-12-03T01:53:44.354Z,15.53
2022-12-03T01:56:16.333Z,16.03
2022-12-03T01:58:55.760Z,14.13
2022-12-03T02:01:22.942Z,15.37
2022-12-03T02:03:53.275Z,15.67
2022-12-03T02:06:30.739Z,15.20
2022-12-03T02:09:00.238Z,14.43
2022-12-03T02:11:31.943Z,13.90
2022-12-03T02:14:08.036Z,15.00
2022-12-03T02:16:37.140Z,15.47
2022-12-03T02:19:12.728Z,14.60
2022-12-03T02:21:46.328Z,14.53
2022-12-03T02:27:24.209Z,14.63
2022-12-03T02:29:51.990Z,14.03
2022-12-03T02:32:23.448Z,13.90
2022-12-03T02:34:52.155Z,14.17
2022-12-03T02:37:39.805Z,15.07
2022-12-03T02:40:25.979Z,13.90
2022-12-03T02:43:14.834Z,13.43
2022-12-03T02:45:44.797Z,13.70
2022-12-03T02:48:17.944Z,12.50
2022-12-03T02:50:57.584Z,14.07
2022-12-03T02:53:28.925Z,13.50
2022-12-03T02:55:57.959Z,11.33
2022-12-03T02:58:26.541Z,12.23
2022-12-03T03:00:59.044Z,12.37
2022-12-03T03:03:28.892Z,12.23
2022-12-03T03:05:58.422Z,12.00
2022-12-03T03:08:27.485Z,12.40
2022-12-03T03:10:58.974Z,11.50
2022-12-03T03:13:47.098Z,11.23
2022-12-03T03:16:14.787Z,11.40
2022-12-03T03:22:02.899Z,10.53
2022-12-03T03:24:45.507Z,10.23
2022-12-03T03:27:45.913Z,11.33
2022-12-03T03:30:14.472Z,9.80
2022-12-03T03:32:43.558Z,10.20
2022-12-03T03:35:12.397Z,10.43
2022-12-03T03:37:59.711Z,9.30
2022-12-03T03:40:28.529Z,9.80
2022-12-03T03:43:08.512Z,9.43
2022-12-03T03:45:36.425Z,8.73
2022-12-03T03:48:04.319Z,9.73
2022-12-03T03:50:33.832Z,9.20
2022-12-03T03:53:20.573Z,9.63
2022-12-03T03:55:49.220Z,9.27
2022-12-03T03:58:18.594Z,9.30
2022-12-03T04:00:47.650Z,9.30
2022-12-03T04:03:15.687Z,9.43
2022-12-03T04:14:37.666Z,9.23
2022-12-03T04:20:31.283Z,8.43
2022-12-03T04:23:12.635Z,8.27
2022-12-03T04:28:52.445Z,8.53
2022-12-03T04:35:01.306Z,8.00
2022-12-03T04:37:29.435Z,8.23
2022-12-03T04:40:00.304Z,8.13
2022-12-03T04:42:28.665Z,8.70
2022-12-03T04:44:58.776Z,8.17
2022-12-03T04:47:27.055Z,8.30
2022-12-03T04:50:02.216Z,8.63
2022-12-03T04:52:30.346Z,7.93
2022-12-03T04:55:16.852Z,8.00
2022-12-03T04:57:44.826Z,8.00
2022-12-03T05:00:16.004Z,8.30
2022-12-03T05:02:43.655Z,8.47
2022-12-03T05:05:24.689Z,7.43
2022-12-03T05:08:01.935Z,7.37
2022-12-03T05:10:33.024Z,8.70
2022-12-03T05:13:27.245Z,7.20
2022-12-03T05:16:08.357Z,6.97
2022-12-03T05:18:36.355Z,6.87
2022-12-03T05:24:12.603Z,7.03
2022-12-03T05:26:40.808Z,7.03
2022-12-03T05:29:35.024Z,6.87
2022-12-03T05:35:05.315Z,7.07
2022-12-03T05:37:33.546Z,7.10
2022-12-03T05:40:02.169Z,7.47
2022-12-03T05:42:50.261Z,6.80
2022-12-03T05:48:23.734Z,6.63
2022-12-03T05:50:55.586Z,6.70
2022-12-03T05:53:37.633Z,6.83
2022-12-03T05:56:05.657Z,6.67
2022-12-03T05:58:33.043Z,6.07
2022-12-03T06:01:16.084Z,6.30
2022-12-03T06:03:43.540Z,6.00
2022-12-03T06:06:11.098Z,9.60
2022-12-03T06:08:38.450Z,5.20
2022-12-03T06:11:08.173Z,5.30
2022-12-03T06:13:38.329Z,5.43
2022-12-03T06:16:05.736Z,5.83
2022-12-03T06:18:33.091Z,5.27
2022-12-03T06:21:06.796Z,4.90
2022-12-03T06:23:52.475Z,4.60
2022-12-03T06:26:19.696Z,4.80
2022-12-03T06:28:49.146Z,4.83
2022-12-03T06:31:16.506Z,4.87
2022-12-03T06:33:43.955Z,4.40
2022-12-03T06:36:11.383Z,4.67
2022-12-03T06:38:38.667Z,6.00
2022-12-03T06:41:05.958Z,4.33
2022-12-03T06:43:33.239Z,4.37
2022-12-03T06:46:00.468Z,4.50
2022-12-03T06:49:25.522Z,4.30
2022-12-03T06:52:02.088Z,4.20
2022-12-03T06:54:29.776Z,4.50
2022-12-03T06:56:56.974Z,4.20
2022-12-03T06:59:25.500Z,4.20
2022-12-03T07:01:56.474Z,4.73
2022-12-03T07:04:29.746Z,4.43
2022-12-03T07:07:06.206Z,4.37
2022-12-03T07:09:33.303Z,4.60
2022-12-03T07:12:19.041Z,4.20
2022-12-03T07:15:02.193Z,4.37
2022-12-03T07:17:56.708Z,4.20
2022-12-03T07:20:23.913Z,3.87
2022-12-03T07:22:52.145Z,8.40
2022-12-03T07:25:23.652Z,4.77
2022-12-03T07:28:30.577Z,4.57
2022-12-03T07:30:58.087Z,4.80
2022-12-03T07:33:25.320Z,7.47
2022-12-03T07:35:53.281Z,4.27
2022-12-03T07:38:20.590Z,8.60
2022-12-03T07:40:57.988Z,5.03
2022-12-03T07:43:25.406Z,4.70
2022-12-03T07:45:58.848Z,4.27
2022-12-03T07:48:56.863Z,4.63
2022-12-03T07:51:28.849Z,5.23
2022-12-03T07:54:17.552Z,5.00
2022-12-03T07:59:53.028Z,6.07
2022-12-03T08:02:38.746Z,5.87
2022-12-03T08:05:13.066Z,6.70
2022-12-03T08:07:40.443Z,6.07
2022-12-03T08:10:08.216Z,5.80
2022-12-03T08:12:41.805Z,6.73
2022-12-03T08:18:22.450Z,6.60
2022-12-03T08:20:51.394Z,6.23
2022-12-03T08:23:23.657Z,5.93
2022-12-03T08:25:52.738Z,6.10
2022-12-03T08:28:21.355Z,6.27
2022-12-03T08:31:19.619Z,6.43
2022-12-03T08:37:45.466Z,6.27
2022-12-03T08:41:45.582Z,6.60
2022-12-03T08:45:00.025Z,8.40
2022-12-03T08:47:29.526Z,7.40
2022-12-03T08:50:09.549Z,7.37
2022-12-03T08:52:36.767Z,8.03
2022-12-03T08:55:32.644Z,14.33
2022-12-03T08:58:00.035Z,15.93
2022-12-03T09:00:55.527Z,7.83
2022-12-03T09:06:23.016Z,8.40
2022-12-03T09:08:50.399Z,8.97
2022-12-03T09:11:25.518Z,8.97
2022-12-03T09:13:52.885Z,9.57
2022-12-03T09:16:20.305Z,9.40
2022-12-03T09:18:47.594Z,10.83
2022-12-03T09:21:14.932Z,10.73
2022-12-03T09:24:21.230Z,10.57
2022-12-03T09:27:00.908Z,10.07
2022-12-03T09:29:28.206Z,10.47
2022-12-03T09:31:55.478Z,10.60
2022-12-03T09:34:22.900Z,10.53
2022-12-03T09:36:50.299Z,10.93
2022-12-03T09:39:17.545Z,11.17
2022-12-03T09:41:58.222Z,11.77
2022-12-03T09:44:28.939Z,11.30
2022-12-03T09:47:00.089Z,11.07
2022-12-03T09:49:50.556Z,11.37
2022-12-03T09:52:24.270Z,11.63
2022-12-03T09:54:52.909Z,11.53
2022-12-03T09:57:20.823Z,11.77
2022-12-03T10:00:23.520Z,12.50
2022-12-03T10:02:53.870Z,12.17
2022-12-03T10:05:22.673Z,11.33
2022-12-03T10:07:51.821Z,13.57
2022-12-03T10:10:23.692Z,13.20
2022-12-03T10:12:52.583Z,11.93
2022-12-03T10:15:25.070Z,12.47
2022-12-03T10:17:54.736Z,12.67
2022-12-03T10:20:40.575Z,12.47
2022-12-03T10:23:08.002Z,12.97
2022-12-03T10:25:50.139Z,12.90
2022-12-03T10:28:28.942Z,13.63
2022-12-03T10:30:57.557Z,13.20
2022-12-03T10:36:27.262Z,19.77
2022-12-03T10:39:06.891Z,16.23
2022-12-03T10:41:36.624Z,14.33
2022-12-03T10:44:17.271Z,13.90
2022-12-03T10:49:26.691Z,12.73
2022-12-03T10:52:25.630Z,13.27
2022-12-03T10:54:53.879Z,13.93
2022-12-03T10:57:22.700Z,20.33
2022-12-03T11:00:02.420Z,12.67
2022-12-03T11:02:29.810Z,12.93
2022-12-03T11:04:57.181Z,15.47
2022-12-03T11:07:26.354Z,13.27
2022-12-03T11:09:58.980Z,13.90
2022-12-03T11:12:29.204Z,15.40
2022-12-03T11:14:57.894Z,13.97
2022-12-03T11:17:25.198Z,14.57
2022-12-03T11:19:52.901Z,14.43
2022-12-03T11:22:37.991Z,15.63
2022-12-03T11:25:27.212Z,14.67
2022-12-03T11:28:15.772Z,14.50
2022-12-03T11:30:49.222Z,13.20
2022-12-03T11:33:22.589Z,13.60
2022-12-03T11:36:05.335Z,13.83
2022-12-03T11:38:38.532Z,13.37
2022-12-03T11:41:21.171Z,13.47
2022-12-03T11:43:57.465Z,13.23
2022-12-03T11:46:25.612Z,14.53
2022-12-03T11:49:00.249Z,13.73
2022-12-03T11:51:29.500Z,17.27
2022-12-03T11:54:06.092Z,12.97
2022-12-03T11:56:33.330Z,16.70
2022-12-03T11:59:12.646Z,16.73
2022-12-03T12:01:46.771Z,14.33
2022-12-03T12:04:38.088Z,15.40
2022-12-03T12:07:08.507Z,15.93
2022-12-03T12:09:53.973Z,14.53
2022-12-03T12:15:39.448Z,15.70
2022-12-03T12:18:38.724Z,14.70
2022-12-03T12:22:12.641Z,14.00
2022-12-03T12:24:57.771Z,14.13
2022-12-03T12:27:30.873Z,13.97
2022-12-03T12:30:03.916Z,15.10
2022-12-03T12:32:34.288Z,14.33
2022-12-03T12:38:24.299Z,14.17
2022-12-03T12:41:21.652Z,13.90
2022-12-03T12:43:52.122Z,13.70
2022-12-03T12:49:50.104Z,12.73
2022-12-03T12:52:22.075Z,14.63
2022-12-03T12:55:12.163Z,13.60
2022-12-03T12:57:49.602Z,13.63
2022-12-03T13:04:26.007Z,13.83
2022-12-03T13:07:44.873Z,12.90
2022-12-03T13:17:11.026Z,13.60
2022-12-03T13:20:27.446Z,13.63
2022-12-03T13:23:19.107Z,13.47
2022-12-03T13:28:29.706Z,14.90
2022-12-03T13:31:26.928Z,15.13
2022-12-03T13:34:01.861Z,15.07
2022-12-03T13:36:57.919Z,13.87
2022-12-03T13:43:32.695Z,13.77
2022-12-03T13:46:00.523Z,14.50
2022-12-03T13:48:37.145Z,15.13
2022-12-03T13:51:51.734Z,14.40
2022-12-03T13:54:47.718Z,15.50
2022-12-03T13:57:15.011Z,15.03
2022-12-03T13:59:42.329Z,14.27
2022-12-03T14:02:10.124Z,15.57
2022-12-03T14:04:37.474Z,17.33
2022-12-03T14:07:12.859Z,17.60
2022-12-03T14:13:41.955Z,15.23
2022-12-03T14:19:00.736Z,15.30
2022-12-03T14:21:28.022Z,15.47
2022-12-03T14:26:46.056Z,14.23
2022-12-03T14:29:59.790Z,15.50
2022-12-03T14:32:27.049Z,15.60
2022-12-03T14:35:06.623Z,16.17
2022-12-03T14:37:36.897Z,14.33
2022-12-03T14:40:04.974Z,15.13
2022-12-03T14:42:32.072Z,14.70
2022-12-03T14:45:31.428Z,15.43
2022-12-03T14:51:23.831Z,14.97
2022-12-03T15:03:30.113Z,16.70
2022-12-03T15:19:36.228Z,16.77
2022-12-03T15:22:03.463Z,20.93
2022-12-03T15:24:40.016Z,16.60
2022-12-03T15:29:58.897Z,16.60
2022-12-03T15:32:26.264Z,17.67
2022-12-03T15:35:22.624Z,17.67
2022-12-03T15:38:06.870Z,18.17
2022-12-03T15:40:34.324Z,16.30
2022-12-03T15:46:12.775Z,16.83
2022-12-03T15:54:38.568Z,17.33
2022-12-03T15:57:20.591Z,16.57
2022-12-03T16:05:42.560Z,18.97
2022-12-03T16:08:28.338Z,17.33
2022-12-03T16:11:02.946Z,18.00
2022-12-03T16:16:29.559Z,19.17
2022-12-03T16:19:05.617Z,18.53
2022-12-03T16:24:47.798Z,20.07
2022-12-03T16:27:15.036Z,20.23
2022-12-03T16:33:11.179Z,20.60
2022-12-03T16:35:38.702Z,20.73
2022-12-03T16:38:18.436Z,20.10
2022-12-03T16:40:51.610Z,21.70
2022-12-03T16:43:19.114Z,20.93
2022-12-03T16:51:41.473Z,21.53
2022-12-03T16:54:11.846Z,20.87
2022-12-03T16:59:29.798Z,21.50
2022-12-03T17:01:57.400Z,20.83
2022-12-03T17:07:11.719Z,23.27
2022-12-03T17:09:39.180Z,22.33
2022-12-03T17:12:06.660Z,22.60
2022-12-03T17:14:36.448Z,23.13
2022-12-03T17:17:04.032Z,20.80
2022-12-03T17:19:32.327Z,23.07
2022-12-03T17:24:41.018Z,24.67
2022-12-03T17:27:08.999Z,23.17
2022-12-03T17:29:36.381Z,27.33
2022-12-03T17:32:03.799Z,25.37
2022-12-03T17:34:31.144Z,22.87
2022-12-03T17:37:10.591Z,24.30
2022-12-03T17:40:07.019Z,21.77
2022-12-03T17:42:34.368Z,22.80
2022-12-03T17:45:01.813Z,21.63
2022-12-03T17:47:47.417Z,22.97
2022-12-03T17:50:33.243Z,22.27
2022-12-03T18:11:02.082Z,21.53
2022-12-03T18:16:31.463Z,20.23
2022-12-03T18:19:06.525Z,20.90
2022-12-03T18:25:38.905Z,19.10
2022-12-03T18:28:06.236Z,22.90
2022-12-03T18:30:33.658Z,20.83
2022-12-03T18:33:07.016Z,20.77
2022-12-03T18:36:11.971Z,19.97
2022-12-03T18:39:36.282Z,20.90
2022-12-03T18:42:45.857Z,20.43
2022-12-03T18:48:36.196Z,22.20
2022-12-03T18:51:13.492Z,20.83
2022-12-03T19:04:13.888Z,19.77
2022-12-03T19:10:49.678Z,18.77
2022-12-03T19:13:37.259Z,20.73
2022-12-03T19:19:33.255Z,21.27
2022-12-03T19:22:31.384Z,20.07
2022-12-03T19:28:26.342Z,20.43
2022-12-03T19:31:08.894Z,20.07
2022-12-03T19:33:45.237Z,18.20
2022-12-03T19:39:22.226Z,19.80
2022-12-03T19:54:28.844Z,20.27
2022-12-03T20:01:27.923Z,18.07
2022-12-03T20:09:59.279Z,18.07
2022-12-03T20:12:59.732Z,19.37
2022-12-03T20:16:00.702Z,19.10
2022-12-03T20:22:13.109Z,16.53
2022-12-03T20:36:33.182Z,15.90
2022-12-03T20:43:18.597Z,16.40
2022-12-03T20:59:33.254Z,15.13
2022-12-03T21:02:12.370Z,14.30
2022-12-03T21:04:48.985Z,14.93
2022-12-03T21:24:49.119Z,15.23
2022-12-03T22:45:06.926Z,15.90
2022-12-03T22:55:19.538Z,15.63
2022-12-03T23:02:11.324Z,17.57
2022-12-03T23:12:52.623Z,16.90
2022-12-03T23:18:30.996Z,15.23
2022-12-03T23:36:05.044Z,15.87
